sensor_id;sensor_type;location;lat;lon;timestamp;temperature;humidity
49765;DHT22;35657;51.204;-4.130;2022-08-01T00:01:53;17.40;99.90
49765;DHT22;35657;51.204;-4.130;2022-08-01T00:04:19;17.40;99.90
49765;DHT22;35657;51.204;-4.130;2022-08-01T00:06:45;17.40;99.90
49765;DHT22;35657;51.204;-4.130;2022-08-01T00:09:11;17.40;99.90
49765;DHT22;35657;51.204;-4.130;2022-08-01T00:11:36;17.30;99.90
49765;DHT22;35657;51.204;-4.130;2022-08-01T00:14:03;17.20;99.90
49765;DHT22;35657;51.204;-4.130;2022-08-01T00:16:28;17.30;99.90
49765;DHT22;35657;51.204;-4.130;2022-08-01T00:18:54;17.30;99.90
49765;DHT22;35657;51.204;-4.130;2022-08-01T00:21:21;17.30;99.90
49765;DHT22;35657;51.204;-4.130;2022-08-01T00:23:47;17.30;99.90
49765;DHT22;35657;51.204;-4.130;2022-08-01T00:26:13;17.10;99.90
49765;DHT22;35657;51.204;-4.130;2022-08-01T00:28:39;17.10;99.90
49765;DHT22;35657;51.204;-4.130;2022-08-01T00:31:04;17.10;99.90
49765;DHT22;35657;51.204;-4.130;2022-08-01T00:33:30;17.10;99.90
49765;DHT22;35657;51.204;-4.130;2022-08-01T00:35:56;17.20;99.90
49765;DHT22;35657;51.204;-4.130;2022-08-01T00:38:22;17.20;99.90
49765;DHT22;35657;51.204;-4.130;2022-08-01T00:40:48;17.30;99.90
49765;DHT22;35657;51.204;-4.130;2022-08-01T00:43:14;17.30;99.90
49765;DHT22;35657;51.204;-4.130;2022-08-01T00:45:40;17.40;99.90
49765;DHT22;35657;51.204;-4.130;2022-08-01T00:48:06;17.50;99.90
49765;DHT22;35657;51.204;-4.130;2022-08-01T00:50:32;17.50;99.90
49765;DHT22;35657;51.204;-4.130;2022-08-01T00:52:59;17.50;99.90
49765;DHT22;35657;51.204;-4.130;2022-08-01T00:55:26;17.50;99.90
49765;DHT22;35657;51.204;-4.130;2022-08-01T00:57:52;17.40;99.90
49765;DHT22;35657;51.204;-4.130;2022-08-01T01:00:19;17.20;99.90
49765;DHT22;35657;51.204;-4.130;2022-08-01T01:02:45;17.20;99.90
49765;DHT22;35657;51.204;-4.130;2022-08-01T01:05:11;17.10;99.90
49765;DHT22;35657;51.204;-4.130;2022-08-01T01:13:13;17.10;99.90
49765;DHT22;35657;51.204;-4.130;2022-08-01T01:15:46;17.20;99.90
49765;DHT22;35657;51.204;-4.130;2022-08-01T01:18:24;17.10;99.90
49765;DHT22;35657;51.204;-4.130;2022-08-01T01:24:05;17.10;99.90
49765;DHT22;35657;51.204;-4.130;2022-08-01T01:29:38;17.10;99.90
49765;DHT22;35657;51.204;-4.130;2022-08-01T01:32:20;17.20;99.90
49765;DHT22;35657;51.204;-4.130;2022-08-01T01:34:50;17.20;99.90
49765;DHT22;35657;51.204;-4.130;2022-08-01T01:37:23;17.10;99.90
49765;DHT22;35657;51.204;-4.130;2022-08-01T01:39:51;17.10;99.90
49765;DHT22;35657;51.204;-4.130;2022-08-01T01:42:19;17.10;99.90
49765;DHT22;35657;51.204;-4.130;2022-08-01T01:44:45;17.20;99.90
49765;DHT22;35657;51.204;-4.130;2022-08-01T01:47:16;17.20;99.90
49765;DHT22;35657;51.204;-4.130;2022-08-01T01:49:45;17.10;99.90
49765;DHT22;35657;51.204;-4.130;2022-08-01T01:52:13;17.00;99.90
49765;DHT22;35657;51.204;-4.130;2022-08-01T01:54:46;17.10;99.90
49765;DHT22;35657;51.204;-4.130;2022-08-01T01:57:13;17.10;99.90
49765;DHT22;35657;51.204;-4.130;2022-08-01T01:59:41;17.10;99.90
49765;DHT22;35657;51.204;-4.130;2022-08-01T02:02:08;17.20;99.90
49765;DHT22;35657;51.204;-4.130;2022-08-01T02:04:41;17.20;99.90
49765;DHT22;35657;51.204;-4.130;2022-08-01T02:07:10;17.20;99.90
49765;DHT22;35657;51.204;-4.130;2022-08-01T02:09:40;17.20;99.90
49765;DHT22;35657;51.204;-4.130;2022-08-01T02:12:07;17.10;99.90
49765;DHT22;35657;51.204;-4.130;2022-08-01T02:14:35;17.00;99.90
49765;DHT22;35657;51.204;-4.130;2022-08-01T02:17:02;17.00;99.90
49765;DHT22;35657;51.204;-4.130;2022-08-01T02:19:30;17.00;99.90
49765;DHT22;35657;51.204;-4.130;2022-08-01T02:22:04;16.90;99.90
49765;DHT22;35657;51.204;-4.130;2022-08-01T02:27:25;16.80;99.90
49765;DHT22;35657;51.204;-4.130;2022-08-01T02:29:59;16.80;99.90
49765;DHT22;35657;51.204;-4.130;2022-08-01T02:32:31;16.70;99.90
49765;DHT22;35657;51.204;-4.130;2022-08-01T02:35:00;16.80;99.90
49765;DHT22;35657;51.204;-4.130;2022-08-01T02:37:26;16.80;99.90
49765;DHT22;35657;51.204;-4.130;2022-08-01T02:39:55;16.80;99.90
49765;DHT22;35657;51.204;-4.130;2022-08-01T02:42:23;16.80;99.90
49765;DHT22;35657;51.204;-4.130;2022-08-01T02:44:52;16.80;99.90
49765;DHT22;35657;51.204;-4.130;2022-08-01T02:47:20;16.80;99.90
49765;DHT22;35657;51.204;-4.130;2022-08-01T02:49:49;16.80;99.90
49765;DHT22;35657;51.204;-4.130;2022-08-01T02:52:16;16.80;99.90
49765;DHT22;35657;51.204;-4.130;2022-08-01T02:54:50;16.80;99.90
49765;DHT22;35657;51.204;-4.130;2022-08-01T02:57:17;16.90;99.90
49765;DHT22;35657;51.204;-4.130;2022-08-01T02:59:46;16.80;99.90
49765;DHT22;35657;51.204;-4.130;2022-08-01T03:02:13;16.80;99.90
49765;DHT22;35657;51.204;-4.130;2022-08-01T03:04:40;16.80;99.90
49765;DHT22;35657;51.204;-4.130;2022-08-01T03:07:09;16.90;99.90
49765;DHT22;35657;51.204;-4.130;2022-08-01T03:09:44;16.80;99.90
49765;DHT22;35657;51.204;-4.130;2022-08-01T03:12:16;16.80;99.90
49765;DHT22;35657;51.204;-4.130;2022-08-01T03:14:44;16.90;99.90
49765;DHT22;35657;51.204;-4.130;2022-08-01T03:17:10;17.00;99.90
49765;DHT22;35657;51.204;-4.130;2022-08-01T03:19:38;17.10;99.90
49765;DHT22;35657;51.204;-4.130;2022-08-01T03:22:07;17.00;99.90
49765;DHT22;35657;51.204;-4.130;2022-08-01T03:24:35;16.90;99.90
49765;DHT22;35657;51.204;-4.130;2022-08-01T03:27:02;16.90;99.90
49765;DHT22;35657;51.204;-4.130;2022-08-01T03:29:29;16.80;99.90
49765;DHT22;35657;51.204;-4.130;2022-08-01T03:31:57;16.80;99.90
49765;DHT22;35657;51.204;-4.130;2022-08-01T03:34:23;16.80;99.90
49765;DHT22;35657;51.204;-4.130;2022-08-01T03:36:56;16.70;99.90
49765;DHT22;35657;51.204;-4.130;2022-08-01T03:39:25;16.70;99.90
49765;DHT22;35657;51.204;-4.130;2022-08-01T03:41:57;16.60;99.90
49765;DHT22;35657;51.204;-4.130;2022-08-01T03:44:26;16.60;99.90
49765;DHT22;35657;51.204;-4.130;2022-08-01T03:47:02;16.50;99.90
49765;DHT22;35657;51.204;-4.130;2022-08-01T03:49:31;16.50;99.90
49765;DHT22;35657;51.204;-4.130;2022-08-01T03:51:59;16.50;99.90
49765;DHT22;35657;51.204;-4.130;2022-08-01T03:54:30;16.50;99.90
49765;DHT22;35657;51.204;-4.130;2022-08-01T03:56:57;16.60;99.90
49765;DHT22;35657;51.204;-4.130;2022-08-01T03:59:24;16.50;99.90
49765;DHT22;35657;51.204;-4.130;2022-08-01T04:01:50;16.50;99.90
49765;DHT22;35657;51.204;-4.130;2022-08-01T04:04:16;16.60;99.90
49765;DHT22;35657;51.204;-4.130;2022-08-01T04:06:42;16.70;99.90
49765;DHT22;35657;51.204;-4.130;2022-08-01T04:09:11;16.80;99.90
49765;DHT22;35657;51.204;-4.130;2022-08-01T04:11:40;16.80;99.90
49765;DHT22;35657;51.204;-4.130;2022-08-01T04:14:09;16.80;99.90
49765;DHT22;35657;51.204;-4.130;2022-08-01T04:16:34;16.90;99.90
49765;DHT22;35657;51.204;-4.130;2022-08-01T04:19:01;16.90;99.90
49765;DHT22;35657;51.204;-4.130;2022-08-01T04:21:28;17.00;99.90
49765;DHT22;35657;51.204;-4.130;2022-08-01T04:23:59;16.90;99.90
49765;DHT22;35657;51.204;-4.130;2022-08-01T04:26:29;17.00;99.90
49765;DHT22;35657;51.204;-4.130;2022-08-01T04:28:56;17.00;99.90
49765;DHT22;35657;51.204;-4.130;2022-08-01T04:31:24;16.90;99.90
49765;DHT22;35657;51.204;-4.130;2022-08-01T04:33:53;16.80;99.90
49765;DHT22;35657;51.204;-4.130;2022-08-01T04:36:23;16.70;99.90
49765;DHT22;35657;51.204;-4.130;2022-08-01T04:38:52;16.70;99.90
49765;DHT22;35657;51.204;-4.130;2022-08-01T04:41:20;16.60;99.90
49765;DHT22;35657;51.204;-4.130;2022-08-01T04:43:46;16.60;99.90
49765;DHT22;35657;51.204;-4.130;2022-08-01T04:46:13;16.60;99.90
49765;DHT22;35657;51.204;-4.130;2022-08-01T04:48:40;16.70;99.90
49765;DHT22;35657;51.204;-4.130;2022-08-01T04:51:16;16.70;99.90
49765;DHT22;35657;51.204;-4.130;2022-08-01T04:53:45;16.70;99.90
49765;DHT22;35657;51.204;-4.130;2022-08-01T04:56:15;16.80;99.90
49765;DHT22;35657;51.204;-4.130;2022-08-01T04:58:41;16.80;99.90
49765;DHT22;35657;51.204;-4.130;2022-08-01T05:01:08;16.80;99.90
49765;DHT22;35657;51.204;-4.130;2022-08-01T05:03:34;16.80;99.90
49765;DHT22;35657;51.204;-4.130;2022-08-01T05:06:00;16.70;99.90
49765;DHT22;35657;51.204;-4.130;2022-08-01T05:08:26;16.70;99.90
49765;DHT22;35657;51.204;-4.130;2022-08-01T05:10:52;16.70;99.90
49765;DHT22;35657;51.204;-4.130;2022-08-01T05:13:18;16.60;99.90
49765;DHT22;35657;51.204;-4.130;2022-08-01T05:15:44;16.60;99.90
49765;DHT22;35657;51.204;-4.130;2022-08-01T05:18:10;16.60;99.90
49765;DHT22;35657;51.204;-4.130;2022-08-01T05:20:37;16.70;99.90
49765;DHT22;35657;51.204;-4.130;2022-08-01T05:23:04;16.80;99.90
49765;DHT22;35657;51.204;-4.130;2022-08-01T05:25:30;16.90;99.90
49765;DHT22;35657;51.204;-4.130;2022-08-01T05:27:56;17.00;99.90
49765;DHT22;35657;51.204;-4.130;2022-08-01T05:30:22;17.00;99.90
49765;DHT22;35657;51.204;-4.130;2022-08-01T05:32:47;17.10;99.90
49765;DHT22;35657;51.204;-4.130;2022-08-01T05:35:13;17.00;99.90
49765;DHT22;35657;51.204;-4.130;2022-08-01T05:37:39;17.00;99.90
49765;DHT22;35657;51.204;-4.130;2022-08-01T05:40:05;17.10;99.90
49765;DHT22;35657;51.204;-4.130;2022-08-01T05:42:31;17.10;99.90
49765;DHT22;35657;51.204;-4.130;2022-08-01T05:44:57;16.90;99.90
49765;DHT22;35657;51.204;-4.130;2022-08-01T05:47:23;16.90;99.90
49765;DHT22;35657;51.204;-4.130;2022-08-01T05:49:49;16.90;99.90
49765;DHT22;35657;51.204;-4.130;2022-08-01T05:52:14;16.80;99.90
49765;DHT22;35657;51.204;-4.130;2022-08-01T05:54:40;16.90;99.90
49765;DHT22;35657;51.204;-4.130;2022-08-01T05:57:06;16.80;99.90
49765;DHT22;35657;51.204;-4.130;2022-08-01T05:59:32;16.80;99.90
49765;DHT22;35657;51.204;-4.130;2022-08-01T06:01:58;16.80;99.90
49765;DHT22;35657;51.204;-4.130;2022-08-01T06:04:23;16.80;99.90
49765;DHT22;35657;51.204;-4.130;2022-08-01T06:06:49;16.80;99.90
49765;DHT22;35657;51.204;-4.130;2022-08-01T06:09:15;16.80;99.90
49765;DHT22;35657;51.204;-4.130;2022-08-01T06:11:41;16.80;99.90
49765;DHT22;35657;51.204;-4.130;2022-08-01T06:14:07;16.80;99.90
49765;DHT22;35657;51.204;-4.130;2022-08-01T06:16:32;16.90;99.90
49765;DHT22;35657;51.204;-4.130;2022-08-01T06:18:59;16.90;99.90
49765;DHT22;35657;51.204;-4.130;2022-08-01T06:21:24;16.90;99.90
49765;DHT22;35657;51.204;-4.130;2022-08-01T06:23:50;16.90;99.90
49765;DHT22;35657;51.204;-4.130;2022-08-01T06:26:19;17.00;99.90
49765;DHT22;35657;51.204;-4.130;2022-08-01T06:28:45;17.00;99.90
49765;DHT22;35657;51.204;-4.130;2022-08-01T06:31:10;17.20;99.90
49765;DHT22;35657;51.204;-4.130;2022-08-01T06:33:39;17.30;99.90
49765;DHT22;35657;51.204;-4.130;2022-08-01T06:36:05;17.50;99.90
49765;DHT22;35657;51.204;-4.130;2022-08-01T06:38:30;17.60;99.90
49765;DHT22;35657;51.204;-4.130;2022-08-01T06:40:56;17.70;99.90
49765;DHT22;35657;51.204;-4.130;2022-08-01T06:43:22;17.70;99.90
49765;DHT22;35657;51.204;-4.130;2022-08-01T06:45:48;17.80;99.90
49765;DHT22;35657;51.204;-4.130;2022-08-01T06:48:14;17.80;99.90
49765;DHT22;35657;51.204;-4.130;2022-08-01T06:50:40;17.90;99.90
49765;DHT22;35657;51.204;-4.130;2022-08-01T06:53:06;17.90;99.90
49765;DHT22;35657;51.204;-4.130;2022-08-01T06:55:31;17.80;99.90
49765;DHT22;35657;51.204;-4.130;2022-08-01T06:57:57;17.70;99.90
49765;DHT22;35657;51.204;-4.130;2022-08-01T07:00:24;17.70;99.90
49765;DHT22;35657;51.204;-4.130;2022-08-01T07:02:51;17.70;99.90
49765;DHT22;35657;51.204;-4.130;2022-08-01T07:05:18;17.70;99.90
49765;DHT22;35657;51.204;-4.130;2022-08-01T07:07:43;17.70;99.90
49765;DHT22;35657;51.204;-4.130;2022-08-01T07:10:10;17.70;99.90
49765;DHT22;35657;51.204;-4.130;2022-08-01T07:12:36;17.60;99.90
49765;DHT22;35657;51.204;-4.130;2022-08-01T07:15:06;17.70;99.90
49765;DHT22;35657;51.204;-4.130;2022-08-01T07:17:32;17.70;99.90
49765;DHT22;35657;51.204;-4.130;2022-08-01T07:19:58;17.70;99.90
49765;DHT22;35657;51.204;-4.130;2022-08-01T07:22:23;17.70;99.90
49765;DHT22;35657;51.204;-4.130;2022-08-01T07:24:49;17.70;99.90
49765;DHT22;35657;51.204;-4.130;2022-08-01T07:27:15;17.70;99.90
49765;DHT22;35657;51.204;-4.130;2022-08-01T07:29:41;17.70;99.90
49765;DHT22;35657;51.204;-4.130;2022-08-01T07:32:06;17.80;99.90
49765;DHT22;35657;51.204;-4.130;2022-08-01T07:34:32;17.80;99.90
49765;DHT22;35657;51.204;-4.130;2022-08-01T07:36:58;17.90;99.90
49765;DHT22;35657;51.204;-4.130;2022-08-01T07:39:24;17.90;99.90
49765;DHT22;35657;51.204;-4.130;2022-08-01T07:41:49;18.00;99.90
49765;DHT22;35657;51.204;-4.130;2022-08-01T07:44:15;18.20;99.90
49765;DHT22;35657;51.204;-4.130;2022-08-01T07:46:41;18.30;99.90
49765;DHT22;35657;51.204;-4.130;2022-08-01T07:49:07;18.40;99.90
49765;DHT22;35657;51.204;-4.130;2022-08-01T07:51:33;18.50;99.90
49765;DHT22;35657;51.204;-4.130;2022-08-01T07:53:58;18.60;99.90
49765;DHT22;35657;51.204;-4.130;2022-08-01T07:56:24;18.60;99.90
49765;DHT22;35657;51.204;-4.130;2022-08-01T07:58:51;18.60;99.90
49765;DHT22;35657;51.204;-4.130;2022-08-01T08:01:17;18.70;99.90
49765;DHT22;35657;51.204;-4.130;2022-08-01T08:03:43;18.70;99.90
49765;DHT22;35657;51.204;-4.130;2022-08-01T08:06:08;18.70;99.90
49765;DHT22;35657;51.204;-4.130;2022-08-01T08:08:34;18.60;99.90
49765;DHT22;35657;51.204;-4.130;2022-08-01T08:11:00;18.50;99.90
49765;DHT22;35657;51.204;-4.130;2022-08-01T08:13:26;18.50;99.90
49765;DHT22;35657;51.204;-4.130;2022-08-01T08:15:53;18.50;99.90
49765;DHT22;35657;51.204;-4.130;2022-08-01T08:18:18;18.50;99.90
49765;DHT22;35657;51.204;-4.130;2022-08-01T08:20:44;18.50;99.90
49765;DHT22;35657;51.204;-4.130;2022-08-01T08:23:10;18.50;99.90
49765;DHT22;35657;51.204;-4.130;2022-08-01T08:25:54;18.40;99.90
49765;DHT22;35657;51.204;-4.130;2022-08-01T08:28:20;18.40;99.90
49765;DHT22;35657;51.204;-4.130;2022-08-01T08:30:46;18.50;99.90
49765;DHT22;35657;51.204;-4.130;2022-08-01T08:33:11;18.50;99.90
49765;DHT22;35657;51.204;-4.130;2022-08-01T08:35:39;18.50;99.90
49765;DHT22;35657;51.204;-4.130;2022-08-01T08:38:06;18.50;99.90
49765;DHT22;35657;51.204;-4.130;2022-08-01T08:40:32;18.60;99.90
49765;DHT22;35657;51.204;-4.130;2022-08-01T08:43:00;18.60;99.90
49765;DHT22;35657;51.204;-4.130;2022-08-01T08:45:27;18.60;99.90
49765;DHT22;35657;51.204;-4.130;2022-08-01T08:47:53;18.60;99.90
49765;DHT22;35657;51.204;-4.130;2022-08-01T08:50:20;18.60;99.90
49765;DHT22;35657;51.204;-4.130;2022-08-01T08:52:46;18.90;99.90
49765;DHT22;35657;51.204;-4.130;2022-08-01T08:55:16;19.20;99.90
49765;DHT22;35657;51.204;-4.130;2022-08-01T08:57:43;19.50;99.90
49765;DHT22;35657;51.204;-4.130;2022-08-01T09:00:10;19.80;99.90
49765;DHT22;35657;51.204;-4.130;2022-08-01T09:02:44;20.00;99.90
49765;DHT22;35657;51.204;-4.130;2022-08-01T09:05:10;20.20;99.90
49765;DHT22;35657;51.204;-4.130;2022-08-01T09:07:37;20.40;99.90
49765;DHT22;35657;51.204;-4.130;2022-08-01T09:10:03;20.60;99.90
49765;DHT22;35657;51.204;-4.130;2022-08-01T09:12:29;20.70;99.90
49765;DHT22;35657;51.204;-4.130;2022-08-01T09:14:55;20.80;99.90
49765;DHT22;35657;51.204;-4.130;2022-08-01T09:17:21;20.90;99.90
49765;DHT22;35657;51.204;-4.130;2022-08-01T09:19:53;20.90;99.90
49765;DHT22;35657;51.204;-4.130;2022-08-01T09:22:20;20.90;99.90
49765;DHT22;35657;51.204;-4.130;2022-08-01T09:25:04;20.90;99.90
49765;DHT22;35657;51.204;-4.130;2022-08-01T09:27:31;21.00;99.90
49765;DHT22;35657;51.204;-4.130;2022-08-01T09:30:09;21.00;99.90
49765;DHT22;35657;51.204;-4.130;2022-08-01T09:32:35;21.00;99.90
49765;DHT22;35657;51.204;-4.130;2022-08-01T09:35:26;21.20;99.90
49765;DHT22;35657;51.204;-4.130;2022-08-01T09:38:18;21.20;99.90
49765;DHT22;35657;51.204;-4.130;2022-08-01T09:40:52;21.40;99.90
49765;DHT22;35657;51.204;-4.130;2022-08-01T09:43:19;21.60;99.90
49765;DHT22;35657;51.204;-4.130;2022-08-01T09:45:45;21.60;99.90
49765;DHT22;35657;51.204;-4.130;2022-08-01T09:48:11;21.70;99.90
49765;DHT22;35657;51.204;-4.130;2022-08-01T09:50:46;21.70;99.90
49765;DHT22;35657;51.204;-4.130;2022-08-01T09:53:12;21.90;99.90
49765;DHT22;35657;51.204;-4.130;2022-08-01T09:55:39;22.10;99.90
49765;DHT22;35657;51.204;-4.130;2022-08-01T09:58:05;22.20;99.90
49765;DHT22;35657;51.204;-4.130;2022-08-01T10:00:33;22.40;99.90
49765;DHT22;35657;51.204;-4.130;2022-08-01T10:02:59;22.50;99.90
49765;DHT22;35657;51.204;-4.130;2022-08-01T10:05:32;22.70;99.90
49765;DHT22;35657;51.204;-4.130;2022-08-01T10:08:00;23.10;99.90
49765;DHT22;35657;51.204;-4.130;2022-08-01T10:10:27;23.20;99.90
49765;DHT22;35657;51.204;-4.130;2022-08-01T10:12:56;23.30;99.90
49765;DHT22;35657;51.204;-4.130;2022-08-01T10:15:23;23.30;99.90
49765;DHT22;35657;51.204;-4.130;2022-08-01T10:17:54;23.20;99.90
49765;DHT22;35657;51.204;-4.130;2022-08-01T10:20:25;23.10;99.90
49765;DHT22;35657;51.204;-4.130;2022-08-01T10:22:54;22.60;99.90
49765;DHT22;35657;51.204;-4.130;2022-08-01T10:25:21;22.50;99.90
49765;DHT22;35657;51.204;-4.130;2022-08-01T10:27:52;23.00;99.90
49765;DHT22;35657;51.204;-4.130;2022-08-01T10:30:20;22.90;99.90
49765;DHT22;35657;51.204;-4.130;2022-08-01T10:32:47;22.80;99.90
49765;DHT22;35657;51.204;-4.130;2022-08-01T10:35:13;23.30;99.90
49765;DHT22;35657;51.204;-4.130;2022-08-01T10:37:44;23.50;99.90
49765;DHT22;35657;51.204;-4.130;2022-08-01T10:40:12;23.80;99.90
49765;DHT22;35657;51.204;-4.130;2022-08-01T10:42:43;23.90;99.90
49765;DHT22;35657;51.204;-4.130;2022-08-01T10:45:14;24.10;99.90
49765;DHT22;35657;51.204;-4.130;2022-08-01T10:47:48;24.30;99.90
49765;DHT22;35657;51.204;-4.130;2022-08-01T10:50:21;24.50;99.90
49765;DHT22;35657;51.204;-4.130;2022-08-01T10:53:11;24.40;99.90
49765;DHT22;35657;51.204;-4.130;2022-08-01T10:55:50;24.30;99.90
49765;DHT22;35657;51.204;-4.130;2022-08-01T11:03:38;24.50;99.90
49765;DHT22;35657;51.204;-4.130;2022-08-01T11:06:04;24.00;99.90
49765;DHT22;35657;51.204;-4.130;2022-08-01T11:08:31;23.50;99.90
49765;DHT22;35657;51.204;-4.130;2022-08-01T11:11:03;23.30;99.90
49765;DHT22;35657;51.204;-4.130;2022-08-01T11:14:03;23.60;99.90
49765;DHT22;35657;51.204;-4.130;2022-08-01T11:16:38;23.60;99.90
49765;DHT22;35657;51.204;-4.130;2022-08-01T11:19:05;23.50;99.90
49765;DHT22;35657;51.204;-4.130;2022-08-01T11:29:43;24.30;99.90
49765;DHT22;35657;51.204;-4.130;2022-08-01T11:32:26;24.40;99.90
49765;DHT22;35657;51.204;-4.130;2022-08-01T11:34:55;24.50;99.90
49765;DHT22;35657;51.204;-4.130;2022-08-01T11:37:28;24.60;99.90
49765;DHT22;35657;51.204;-4.130;2022-08-01T11:40:26;24.60;99.90
49765;DHT22;35657;51.204;-4.130;2022-08-01T11:48:24;24.50;99.90
49765;DHT22;35657;51.204;-4.130;2022-08-01T11:50:50;24.60;99.90
49765;DHT22;35657;51.204;-4.130;2022-08-01T11:53:17;24.60;99.90
49765;DHT22;35657;51.204;-4.130;2022-08-01T11:55:49;24.70;99.90
49765;DHT22;35657;51.204;-4.130;2022-08-01T11:58:20;24.80;99.90
49765;DHT22;35657;51.204;-4.130;2022-08-01T12:00:53;25.00;99.90
49765;DHT22;35657;51.204;-4.130;2022-08-01T12:03:26;25.10;99.90
49765;DHT22;35657;51.204;-4.130;2022-08-01T12:05:55;25.10;99.90
49765;DHT22;35657;51.204;-4.130;2022-08-01T12:08:26;25.40;99.90
49765;DHT22;35657;51.204;-4.130;2022-08-01T12:10:53;25.30;99.90
49765;DHT22;35657;51.204;-4.130;2022-08-01T12:13:19;25.50;99.90
49765;DHT22;35657;51.204;-4.130;2022-08-01T12:15:46;25.30;99.90
49765;DHT22;35657;51.204;-4.130;2022-08-01T12:18:13;25.10;99.90
49765;DHT22;35657;51.204;-4.130;2022-08-01T12:20:40;24.70;99.90
49765;DHT22;35657;51.204;-4.130;2022-08-01T12:23:10;24.70;99.90
49765;DHT22;35657;51.204;-4.130;2022-08-01T12:25:37;24.90;99.90
49765;DHT22;35657;51.204;-4.130;2022-08-01T12:28:09;24.60;99.90
49765;DHT22;35657;51.204;-4.130;2022-08-01T12:30:37;24.40;99.90
49765;DHT22;35657;51.204;-4.130;2022-08-01T12:33:08;24.00;99.90
49765;DHT22;35657;51.204;-4.130;2022-08-01T12:35:34;23.70;99.90
49765;DHT22;35657;51.204;-4.130;2022-08-01T12:38:06;23.80;99.90
49765;DHT22;35657;51.204;-4.130;2022-08-01T12:40:35;23.50;99.90
49765;DHT22;35657;51.204;-4.130;2022-08-01T12:43:05;23.30;99.90
49765;DHT22;35657;51.204;-4.130;2022-08-01T12:45:40;23.20;99.90
49765;DHT22;35657;51.204;-4.130;2022-08-01T12:48:14;22.80;99.90
49765;DHT22;35657;51.204;-4.130;2022-08-01T12:50:45;23.00;99.90
49765;DHT22;35657;51.204;-4.130;2022-08-01T12:53:12;23.30;99.90
49765;DHT22;35657;51.204;-4.130;2022-08-01T12:55:50;23.00;99.90
49765;DHT22;35657;51.204;-4.130;2022-08-01T12:58:17;23.20;99.90
49765;DHT22;35657;51.204;-4.130;2022-08-01T13:00:45;22.90;99.90
49765;DHT22;35657;51.204;-4.130;2022-08-01T13:03:14;22.60;99.90
49765;DHT22;35657;51.204;-4.130;2022-08-01T13:05:48;22.50;99.90
49765;DHT22;35657;51.204;-4.130;2022-08-01T13:08:18;22.60;99.90
49765;DHT22;35657;51.204;-4.130;2022-08-01T13:10:44;23.00;99.90
49765;DHT22;35657;51.204;-4.130;2022-08-01T13:13:11;23.30;99.90
49765;DHT22;35657;51.204;-4.130;2022-08-01T13:15:39;23.00;99.90
49765;DHT22;35657;51.204;-4.130;2022-08-01T13:18:30;22.90;99.90
49765;DHT22;35657;51.204;-4.130;2022-08-01T13:23:33;23.20;99.90
49765;DHT22;35657;51.204;-4.130;2022-08-01T13:25:59;23.60;99.90
49765;DHT22;35657;51.204;-4.130;2022-08-01T13:28:26;23.90;99.90
49765;DHT22;35657;51.204;-4.130;2022-08-01T13:30:54;23.90;99.90
49765;DHT22;35657;51.204;-4.130;2022-08-01T13:33:20;24.00;99.90
49765;DHT22;35657;51.204;-4.130;2022-08-01T13:35:46;24.20;99.90
49765;DHT22;35657;51.204;-4.130;2022-08-01T13:38:14;24.40;99.90
49765;DHT22;35657;51.204;-4.130;2022-08-01T13:40:40;24.40;99.90
49765;DHT22;35657;51.204;-4.130;2022-08-01T13:43:05;24.50;99.90
49765;DHT22;35657;51.204;-4.130;2022-08-01T13:45:31;24.50;99.90
49765;DHT22;35657;51.204;-4.130;2022-08-01T13:47:57;24.60;99.90
49765;DHT22;35657;51.204;-4.130;2022-08-01T13:50:22;24.70;99.90
49765;DHT22;35657;51.204;-4.130;2022-08-01T13:52:48;24.50;99.90
49765;DHT22;35657;51.204;-4.130;2022-08-01T13:55:14;24.30;99.90
49765;DHT22;35657;51.204;-4.130;2022-08-01T13:57:39;24.20;99.90
49765;DHT22;35657;51.204;-4.130;2022-08-01T14:00:07;24.10;99.90
49765;DHT22;35657;51.204;-4.130;2022-08-01T14:02:33;24.10;99.90
49765;DHT22;35657;51.204;-4.130;2022-08-01T14:04:59;24.10;99.90
49765;DHT22;35657;51.204;-4.130;2022-08-01T14:07:27;24.10;99.90
49765;DHT22;35657;51.204;-4.130;2022-08-01T14:09:53;24.00;99.90
49765;DHT22;35657;51.204;-4.130;2022-08-01T14:12:19;24.00;99.90
49765;DHT22;35657;51.204;-4.130;2022-08-01T14:14:44;23.80;99.90
49765;DHT22;35657;51.204;-4.130;2022-08-01T14:17:10;23.80;99.90
49765;DHT22;35657;51.204;-4.130;2022-08-01T14:19:36;23.80;99.90
49765;DHT22;35657;51.204;-4.130;2022-08-01T14:22:02;23.80;99.90
49765;DHT22;35657;51.204;-4.130;2022-08-01T14:24:27;23.80;99.90
49765;DHT22;35657;51.204;-4.130;2022-08-01T14:26:54;23.80;99.90
49765;DHT22;35657;51.204;-4.130;2022-08-01T14:29:19;23.70;99.90
49765;DHT22;35657;51.204;-4.130;2022-08-01T14:31:45;23.80;99.90
49765;DHT22;35657;51.204;-4.130;2022-08-01T14:34:11;23.70;99.90
49765;DHT22;35657;51.204;-4.130;2022-08-01T14:36:38;23.90;99.90
49765;DHT22;35657;51.204;-4.130;2022-08-01T14:39:04;23.90;99.90
49765;DHT22;35657;51.204;-4.130;2022-08-01T14:41:30;24.00;99.90
49765;DHT22;35657;51.204;-4.130;2022-08-01T14:43:55;24.00;99.90
49765;DHT22;35657;51.204;-4.130;2022-08-01T14:46:21;24.00;99.90
49765;DHT22;35657;51.204;-4.130;2022-08-01T14:48:47;23.90;99.90
49765;DHT22;35657;51.204;-4.130;2022-08-01T14:51:13;24.00;99.90
49765;DHT22;35657;51.204;-4.130;2022-08-01T14:53:39;24.00;99.90
49765;DHT22;35657;51.204;-4.130;2022-08-01T14:56:05;24.00;99.90
49765;DHT22;35657;51.204;-4.130;2022-08-01T14:58:31;23.90;99.90
49765;DHT22;35657;51.204;-4.130;2022-08-01T15:00:57;23.80;99.90
49765;DHT22;35657;51.204;-4.130;2022-08-01T15:03:23;23.70;99.90
49765;DHT22;35657;51.204;-4.130;2022-08-01T15:05:49;23.50;99.90
49765;DHT22;35657;51.204;-4.130;2022-08-01T15:08:14;23.50;99.90
49765;DHT22;35657;51.204;-4.130;2022-08-01T15:10:40;23.40;99.90
49765;DHT22;35657;51.204;-4.130;2022-08-01T15:13:06;23.40;99.90
49765;DHT22;35657;51.204;-4.130;2022-08-01T15:15:33;23.30;99.90
49765;DHT22;35657;51.204;-4.130;2022-08-01T15:17:59;23.30;99.90
49765;DHT22;35657;51.204;-4.130;2022-08-01T15:20:24;23.30;99.90
49765;DHT22;35657;51.204;-4.130;2022-08-01T15:22:53;23.30;99.90
49765;DHT22;35657;51.204;-4.130;2022-08-01T15:25:19;23.30;99.90
49765;DHT22;35657;51.204;-4.130;2022-08-01T15:27:44;23.10;99.90
49765;DHT22;35657;51.204;-4.130;2022-08-01T15:30:10;23.10;99.90
49765;DHT22;35657;51.204;-4.130;2022-08-01T15:32:36;23.10;99.90
49765;DHT22;35657;51.204;-4.130;2022-08-01T15:35:02;23.10;99.90
49765;DHT22;35657;51.204;-4.130;2022-08-01T15:37:28;23.10;99.90
49765;DHT22;35657;51.204;-4.130;2022-08-01T15:39:54;23.00;99.90
49765;DHT22;35657;51.204;-4.130;2022-08-01T15:42:19;23.00;99.90
49765;DHT22;35657;51.204;-4.130;2022-08-01T15:44:46;23.00;99.90
49765;DHT22;35657;51.204;-4.130;2022-08-01T15:47:12;23.00;99.90
49765;DHT22;35657;51.204;-4.130;2022-08-01T15:49:37;23.10;99.90
49765;DHT22;35657;51.204;-4.130;2022-08-01T15:52:05;23.30;99.90
49765;DHT22;35657;51.204;-4.130;2022-08-01T15:54:31;23.30;99.90
49765;DHT22;35657;51.204;-4.130;2022-08-01T15:56:57;23.00;99.90